createdAt,value
2023-03-21T00:00:00.464Z,87.19
2023-03-21T00:00:11.215Z,87.19
2023-03-21T00:00:23.450Z,87.19
2023-03-21T00:00:35.191Z,87.19
2023-03-21T00:00:47.392Z,87.19
2023-03-21T00:00:59.160Z,87.19
2023-03-21T00:01:10.884Z,87.19
2023-03-21T00:01:22.611Z,87.19
2023-03-21T00:01:35.840Z,87.19
2023-03-21T00:01:48.064Z,87.30
2023-03-21T00:02:00.551Z,87.30
2023-03-21T00:02:13.024Z,87.30
2023-03-21T00:02:23.862Z,87.30
2023-03-21T00:02:34.682Z,87.30
2023-03-21T00:02:46.467Z,87.30
2023-03-21T00:02:58.226Z,87.30
2023-03-21T00:03:09.172Z,87.30
2023-03-21T00:03:20.929Z,87.30
2023-03-21T00:03:31.714Z,87.30
2023-03-21T00:03:43.199Z,87.30
2023-03-21T00:03:55.074Z,87.30
2023-03-21T00:04:05.865Z,87.30
2023-03-21T00:04:18.361Z,87.40
2023-03-21T00:04:37.989Z,87.40
2023-03-21T00:04:52.134Z,87.40
2023-03-21T00:05:13.390Z,87.51
2023-03-21T00:05:18.681Z,87.51
2023-03-21T00:05:29.516Z,87.51
2023-03-21T00:05:41.862Z,87.51
2023-03-21T00:05:53.029Z,87.51
2023-03-21T00:06:05.784Z,87.51
2023-03-21T00:06:17.518Z,87.51
2023-03-21T00:06:30.224Z,87.51
2023-03-21T00:06:41.003Z,87.51
2023-03-21T00:06:53.534Z,87.51
2023-03-21T00:07:04.265Z,87.51
2023-03-21T00:07:16.714Z,87.51
2023-03-21T00:07:28.572Z,87.51
2023-03-21T00:07:39.354Z,87.51
2023-03-21T00:07:50.084Z,87.51
2023-03-21T00:08:03.333Z,87.51
2023-03-21T00:08:14.105Z,87.51
2023-03-21T00:08:24.883Z,87.51
2023-03-21T00:08:37.166Z,87.51
2023-03-21T00:08:47.959Z,87.40
2023-03-21T00:09:00.467Z,87.40
2023-03-21T00:09:11.274Z,87.30
2023-03-21T00:09:23.785Z,87.30
2023-03-21T00:09:34.612Z,87.30
2023-03-21T00:09:45.395Z,87.30
2023-03-21T00:10:05.133Z,87.30
2023-03-21T00:10:18.194Z,87.30
2023-03-21T00:10:40.359Z,87.30
2023-03-21T00:10:49.014Z,87.40
2023-03-21T00:11:01.301Z,87.40
2023-03-21T00:11:12.077Z,87.30
2023-03-21T00:11:25.303Z,87.30
2023-03-21T00:11:37.090Z,87.19
2023-03-21T00:11:47.844Z,87.19
2023-03-21T00:12:00.988Z,87.09
2023-03-21T00:12:11.779Z,86.99
2023-03-21T00:12:25.167Z,86.99
2023-03-21T00:12:35.944Z,86.88
2023-03-21T00:12:46.796Z,86.68
2023-03-21T00:12:57.607Z,86.58
2023-03-21T00:13:10.831Z,86.58
2023-03-21T00:13:22.568Z,86.58
2023-03-21T00:13:34.975Z,86.58
2023-03-21T00:13:46.997Z,86.68
2023-03-21T00:13:59.814Z,86.68
2023-03-21T00:14:11.624Z,86.79
2023-03-21T00:14:24.202Z,86.79
2023-03-21T00:14:36.784Z,86.88
2023-03-21T00:14:47.719Z,86.88
2023-03-21T00:14:59.458Z,86.88
2023-03-21T00:15:11.804Z,86.88
2023-03-21T00:15:25.001Z,86.88
2023-03-21T00:15:48.448Z,86.88
2023-03-21T00:16:06.870Z,86.88
2023-03-21T00:16:17.987Z,86.79
2023-03-21T00:16:31.036Z,86.79
2023-03-21T00:16:44.179Z,86.88
2023-03-21T00:16:55.297Z,86.79
2023-03-21T00:17:08.088Z,86.79
2023-03-21T00:17:19.935Z,86.68
2023-03-21T00:17:30.727Z,86.58
2023-03-21T00:17:43.755Z,86.58
2023-03-21T00:17:56.039Z,86.47
2023-03-21T00:18:07.952Z,86.47
2023-03-21T00:18:20.398Z,86.47
2023-03-21T00:18:32.120Z,86.47
2023-03-21T00:18:42.896Z,86.47
2023-03-21T00:18:55.396Z,86.47
2023-03-21T00:19:06.155Z,86.47
2023-03-21T00:19:17.863Z,86.47
2023-03-21T00:19:28.657Z,86.58
2023-03-21T00:19:40.406Z,86.58
2023-03-21T00:19:51.648Z,86.58
2023-03-21T00:20:03.408Z,86.58
2023-03-21T00:20:15.686Z,86.58
2023-03-21T00:20:27.411Z,86.58
2023-03-21T00:20:39.887Z,86.47
2023-03-21T00:20:52.020Z,86.47
2023-03-21T00:21:35.594Z,86.37
2023-03-21T00:22:05.874Z,86.27
2023-03-21T00:22:08.699Z,86.27
2023-03-21T00:22:21.924Z,86.27
2023-03-21T00:22:32.696Z,86.16
2023-03-21T00:22:45.205Z,86.16
2023-03-21T00:23:00.374Z,86.16
2023-03-21T00:23:12.167Z,86.16
2023-03-21T00:23:23.906Z,86.16
2023-03-21T00:23:36.619Z,86.16
2023-03-21T00:23:49.097Z,86.06
2023-03-21T00:24:00.886Z,86.06
2023-03-21T00:24:12.898Z,86.06
2023-03-21T00:24:23.717Z,86.16
2023-03-21T00:24:37.014Z,86.16
2023-03-21T00:24:47.815Z,86.27
2023-03-21T00:24:59.609Z,86.27
2023-03-21T00:25:12.137Z,86.16
2023-03-21T00:25:24.385Z,86.16
2023-03-21T00:25:36.398Z,86.16
2023-03-21T00:25:48.937Z,86.27
2023-03-21T00:25:59.716Z,86.27
2023-03-21T00:26:11.476Z,86.27
2023-03-21T00:26:22.278Z,86.27
2023-03-21T00:26:33.167Z,86.27
2023-03-21T00:26:46.382Z,86.27
2023-03-21T00:27:15.848Z,86.27
2023-03-21T00:27:42.618Z,86.37
2023-03-21T00:27:50.396Z,86.37
2023-03-21T00:28:05.503Z,86.37
2023-03-21T00:28:08.823Z,86.37
2023-03-21T00:28:21.318Z,86.37
2023-03-21T00:28:32.090Z,86.47
2023-03-21T00:28:44.687Z,86.68
2023-03-21T00:28:56.422Z,86.79
2023-03-21T00:29:07.233Z,86.79
2023-03-21T00:29:18.964Z,86.88
2023-03-21T00:29:29.737Z,86.88
2023-03-21T00:29:41.471Z,86.88
2023-03-21T00:29:52.248Z,86.88
2023-03-21T00:30:06.016Z,86.88
2023-03-21T00:30:18.475Z,86.88
2023-03-21T00:30:30.926Z,86.88
2023-03-21T00:30:44.689Z,86.88
2023-03-21T00:30:59.010Z,86.99
2023-03-21T00:31:09.758Z,87.09
2023-03-21T00:31:21.505Z,87.19
2023-03-21T00:31:33.960Z,87.30
2023-03-21T00:31:46.194Z,87.40
2023-03-21T00:31:58.430Z,87.40
2023-03-21T00:32:10.986Z,87.40
2023-03-21T00:32:22.768Z,87.30
2023-03-21T00:32:37.490Z,87.30
2023-03-21T00:32:56.582Z,87.30
2023-03-21T00:33:21.753Z,87.30
2023-03-21T00:33:23.491Z,87.30
2023-03-21T00:33:34.328Z,87.30
2023-03-21T00:33:46.828Z,87.30
2023-03-21T00:33:59.273Z,87.30
2023-03-21T00:34:31.912Z,87.40
2023-03-21T00:34:48.423Z,87.40
2023-03-21T00:35:11.883Z,87.40
2023-03-21T00:35:47.931Z,87.40
2023-03-21T00:35:58.399Z,87.40
2023-03-21T00:36:05.378Z,87.40
2023-03-21T00:36:17.657Z,87.40
2023-03-21T00:36:29.471Z,87.40
2023-03-21T00:36:41.737Z,87.40
2023-03-21T00:36:52.615Z,87.40
2023-03-21T00:37:05.893Z,87.40
2023-03-21T00:37:17.667Z,87.40
2023-03-21T00:37:28.440Z,87.51
2023-03-21T00:37:40.910Z,87.40
2023-03-21T00:37:51.720Z,87.40
2023-03-21T00:38:05.422Z,87.40
2023-03-21T00:38:17.164Z,87.40
2023-03-21T00:38:29.651Z,87.40
2023-03-21T00:38:40.422Z,87.30
2023-03-21T00:38:52.910Z,87.30
2023-03-21T00:39:05.359Z,87.30
2023-03-21T00:39:17.240Z,87.30
2023-03-21T00:39:28.001Z,87.30
2023-03-21T00:39:39.777Z,87.30
2023-03-21T00:39:50.560Z,87.30
2023-03-21T00:40:02.343Z,87.30
2023-03-21T00:40:26.786Z,87.30
2023-03-21T00:40:35.362Z,87.30
2023-03-21T00:40:49.427Z,87.30
2023-03-21T00:41:07.893Z,87.30
2023-03-21T00:41:35.156Z,87.30
2023-03-21T00:41:42.785Z,87.40
2023-03-21T00:41:55.863Z,87.40
2023-03-21T00:42:07.503Z,87.40
2023-03-21T00:42:20.058Z,87.40
2023-03-21T00:42:31.780Z,87.40
2023-03-21T00:42:44.261Z,87.51
2023-03-21T00:42:56.756Z,87.51
2023-03-21T00:43:09.190Z,87.51
2023-03-21T00:43:21.479Z,87.51
2023-03-21T00:43:35.096Z,87.51
2023-03-21T00:43:46.883Z,87.51
2023-03-21T00:43:58.653Z,87.51
2023-03-21T00:44:09.426Z,87.51
2023-03-21T00:44:20.263Z,87.51
2023-03-21T00:44:32.017Z,87.51
2023-03-21T00:44:45.251Z,87.51
2023-03-21T00:44:56.971Z,87.51
2023-03-21T00:45:07.811Z,87.51
2023-03-21T00:45:20.332Z,87.51
2023-03-21T00:45:33.050Z,87.51
2023-03-21T00:45:43.814Z,87.51
2023-03-21T00:45:56.294Z,87.51
2023-03-21T00:46:08.056Z,87.51
2023-03-21T00:46:21.752Z,87.51
2023-03-21T00:46:44.083Z,87.51
2023-03-21T00:47:04.462Z,87.51
2023-03-21T00:47:08.057Z,87.51
2023-03-21T00:47:24.067Z,87.40
2023-03-21T00:47:37.905Z,87.51
2023-03-21T00:47:49.809Z,87.51
2023-03-21T00:48:00.855Z,87.60
2023-03-21T00:48:13.509Z,87.60
2023-03-21T00:48:26.007Z,87.60
2023-03-21T00:48:37.886Z,87.60
2023-03-21T00:48:49.692Z,87.71
2023-03-21T00:49:01.656Z,87.71
2023-03-21T00:49:13.914Z,87.60
2023-03-21T00:49:26.162Z,87.60
2023-03-21T00:49:39.928Z,87.60
2023-03-21T00:49:51.803Z,87.71
2023-03-21T00:50:03.546Z,87.71
2023-03-21T00:50:15.275Z,87.81
2023-03-21T00:50:26.053Z,87.81
2023-03-21T00:50:37.787Z,87.81
2023-03-21T00:50:51.001Z,87.92
2023-03-21T00:51:03.464Z,87.92
2023-03-21T00:51:14.262Z,87.92
2023-03-21T00:51:26.784Z,87.92
2023-03-21T00:51:40.518Z,87.92
2023-03-21T00:51:53.365Z,87.81
2023-03-21T00:52:15.084Z,87.81
2023-03-21T00:52:34.198Z,87.81
2023-03-21T00:52:40.931Z,87.81
2023-03-21T00:52:53.677Z,87.81
2023-03-21T00:53:05.465Z,87.81
2023-03-21T00:53:17.280Z,87.81
2023-03-21T00:53:28.305Z,87.81
2023-03-21T00:53:39.113Z,87.81
2023-03-21T00:53:50.842Z,87.92
2023-03-21T00:54:03.305Z,87.92
2023-03-21T00:54:14.076Z,87.92
2023-03-21T00:54:25.783Z,87.92
2023-03-21T00:54:36.541Z,87.92
2023-03-21T00:54:47.282Z,87.92
2023-03-21T00:54:59.728Z,87.92
2023-03-21T00:55:14.565Z,87.92
2023-03-21T00:55:27.055Z,87.92
2023-03-21T00:55:39.495Z,87.92
2023-03-21T00:55:51.264Z,88.02
2023-03-21T00:56:02.054Z,88.02
2023-03-21T00:56:13.825Z,88.02
2023-03-21T00:56:25.573Z,88.02
2023-03-21T00:56:37.324Z,88.02
2023-03-21T00:56:49.056Z,88.02
2023-03-21T00:57:01.557Z,88.02
2023-03-21T00:57:14.544Z,88.02
2023-03-21T00:57:38.070Z,88.02
2023-03-21T00:57:45.296Z,88.02
2023-03-21T00:58:02.346Z,88.02
2023-03-21T00:58:15.744Z,88.02
2023-03-21T00:58:28.023Z,88.12
2023-03-21T00:58:39.803Z,88.12
2023-03-21T00:58:50.576Z,88.12
2023-03-21T00:59:03.048Z,88.12
2023-03-21T00:59:15.529Z,88.12
2023-03-21T00:59:27.267Z,88.12
2023-03-21T00:59:39.725Z,88.12
2023-03-21T00:59:52.168Z,88.23
2023-03-21T01:00:03.956Z,88.23
2023-03-21T01:00:14.753Z,88.23
2023-03-21T01:00:26.556Z,88.23
2023-03-21T01:00:38.821Z,88.23
2023-03-21T01:00:53.514Z,88.12
2023-03-21T01:01:05.330Z,88.12
2023-03-21T01:01:16.196Z,88.12
2023-03-21T01:01:28.706Z,88.23
2023-03-21T01:01:41.278Z,88.23
2023-03-21T01:01:52.108Z,88.23
2023-03-21T01:02:03.871Z,88.23
2023-03-21T01:02:15.698Z,88.23
2023-03-21T01:02:28.466Z,88.23
2023-03-21T01:02:41.921Z,88.23
2023-03-21T01:03:00.189Z,88.12
2023-03-21T01:03:21.392Z,88.12
2023-03-21T01:03:25.707Z,88.12
2023-03-21T01:03:37.491Z,88.02
2023-03-21T01:03:49.967Z,88.02
2023-03-21T01:04:02.472Z,88.02
2023-03-21T01:04:14.268Z,88.12
2023-03-21T01:04:25.079Z,88.12
2023-03-21T01:04:36.871Z,88.23
2023-03-21T01:04:47.644Z,88.23
2023-03-21T01:04:59.416Z,88.23
2023-03-21T01:05:11.169Z,88.23
2023-03-21T01:05:22.981Z,88.23
2023-03-21T01:05:37.531Z,88.33
2023-03-21T01:05:48.509Z,88.33
2023-03-21T01:06:00.304Z,88.33
2023-03-21T01:06:12.566Z,88.33
2023-03-21T01:06:24.444Z,88.33
2023-03-21T01:06:35.248Z,88.33
2023-03-21T01:06:46.083Z,88.33
2023-03-21T01:06:56.967Z,88.33
2023-03-21T01:07:08.738Z,88.33
2023-03-21T01:07:19.669Z,88.33
2023-03-21T01:07:31.457Z,88.33
2023-03-21T01:07:42.283Z,88.33
2023-03-21T01:07:54.058Z,88.23
2023-03-21T01:08:20.690Z,88.23
2023-03-21T01:08:29.350Z,88.33
2023-03-21T01:08:51.752Z,88.33
2023-03-21T01:08:54.723Z,88.33
2023-03-21T01:09:07.751Z,88.33
2023-03-21T01:09:18.508Z,88.33
2023-03-21T01:09:29.342Z,88.33
2023-03-21T01:09:40.099Z,88.33
2023-03-21T01:09:52.339Z,88.33
2023-03-21T01:10:05.088Z,88.43
2023-03-21T01:10:15.931Z,88.43
2023-03-21T01:10:26.739Z,88.43
2023-03-21T01:10:37.569Z,88.43
2023-03-21T01:10:49.356Z,88.43
2023-03-21T01:11:01.187Z,88.53
2023-03-21T01:11:12.974Z,88.43
2023-03-21T01:11:25.510Z,88.43
2023-03-21T01:11:37.311Z,88.43
2023-03-21T01:11:49.137Z,88.43
2023-03-21T01:11:59.969Z,88.33
2023-03-21T01:12:10.748Z,88.23
2023-03-21T01:12:23.071Z,88.23
2023-03-21T01:12:33.860Z,88.12
2023-03-21T01:12:47.079Z,88.12
2023-03-21T01:12:57.943Z,88.12
2023-03-21T01:13:09.750Z,88.12
2023-03-21T01:13:20.564Z,88.12
2023-03-21T01:13:34.670Z,88.12
2023-03-21T01:13:54.752Z,88.12
2023-03-21T01:14:21.307Z,88.12
2023-03-21T01:14:23.089Z,88.33
2023-03-21T01:14:35.371Z,88.33
2023-03-21T01:14:46.171Z,88.33
2023-03-21T01:14:56.960Z,88.23
2023-03-21T01:15:07.777Z,88.23
2023-03-21T01:15:18.581Z,88.12
2023-03-21T01:15:30.330Z,88.12
2023-03-21T01:15:42.830Z,88.12
2023-03-21T01:15:54.836Z,88.12
2023-03-21T01:16:05.690Z,88.23
2023-03-21T01:16:17.474Z,88.23
2023-03-21T01:16:29.278Z,88.23
2023-03-21T01:16:41.802Z,88.23
2023-03-21T01:16:53.778Z,88.23
2023-03-21T01:17:04.569Z,88.23
2023-03-21T01:17:15.359Z,88.12
2023-03-21T01:17:26.200Z,88.12
2023-03-21T01:17:36.980Z,88.02
2023-03-21T01:17:48.759Z,88.12
2023-03-21T01:17:59.561Z,88.12
2023-03-21T01:18:10.371Z,88.12
2023-03-21T01:18:22.164Z,88.12
2023-03-21T01:18:34.629Z,88.12
2023-03-21T01:18:45.383Z,88.23
2023-03-21T01:18:56.229Z,88.23
2023-03-21T01:19:11.936Z,88.23
2023-03-21T01:19:37.667Z,88.23
2023-03-21T01:19:51.246Z,88.23
2023-03-21T01:19:54.308Z,88.33
2023-03-21T01:20:05.084Z,88.33
2023-03-21T01:20:18.790Z,88.43
2023-03-21T01:20:29.658Z,88.33
2023-03-21T01:20:41.421Z,88.33
2023-03-21T01:20:52.242Z,88.33
2023-03-21T01:21:03.041Z,88.33
2023-03-21T01:21:13.802Z,88.33
2023-03-21T01:21:26.304Z,88.33
2023-03-21T01:21:37.104Z,88.23
2023-03-21T01:21:48.860Z,88.12
2023-03-21T01:22:01.620Z,88.02
2023-03-21T01:22:12.483Z,88.02
2023-03-21T01:22:25.001Z,88.02
2023-03-21T01:22:37.510Z,88.12
2023-03-21T01:22:49.240Z,88.12
2023-03-21T01:23:01.431Z,88.12
2023-03-21T01:23:12.263Z,88.23
2023-03-21T01:23:23.995Z,88.23
2023-03-21T01:23:37.207Z,88.23
2023-03-21T01:23:48.037Z,88.23
2023-03-21T01:24:00.296Z,88.12
2023-03-21T01:24:12.753Z,88.12
2023-03-21T01:24:25.004Z,88.23
2023-03-21T01:24:40.348Z,88.23
2023-03-21T01:24:56.878Z,88.23
2023-03-21T01:25:21.518Z,88.23
2023-03-21T01:25:25.735Z,88.12
2023-03-21T01:25:37.790Z,88.12
2023-03-21T01:25:51.614Z,88.12
2023-03-21T01:26:04.071Z,88.12
2023-03-21T01:26:17.332Z,88.02
2023-03-21T01:26:29.841Z,87.92
2023-03-21T01:26:41.649Z,87.92
2023-03-21T01:26:54.091Z,87.92
2023-03-21T01:27:06.701Z,87.92
2023-03-21T01:27:19.313Z,87.92
2023-03-21T01:27:33.635Z,88.02
2023-03-21T01:27:44.430Z,88.02
2023-03-21T01:27:56.182Z,88.02
2023-03-21T01:28:07.015Z,88.02
2023-03-21T01:28:20.261Z,88.02
2023-03-21T01:28:32.751Z,88.02
2023-03-21T01:28:45.301Z,88.02
2023-03-21T01:28:58.097Z,87.92
2023-03-21T01:29:08.937Z,87.92
2023-03-21T01:29:19.805Z,87.92
2023-03-21T01:29:31.555Z,87.81
2023-03-21T01:29:45.309Z,87.81
2023-03-21T01:29:58.634Z,87.71
2023-03-21T01:30:18.888Z,87.71
2023-03-21T01:30:33.914Z,87.71
2023-03-21T01:30:45.703Z,87.71
2023-03-21T01:30:57.480Z,87.71
2023-03-21T01:31:08.334Z,87.71
2023-03-21T01:31:19.135Z,87.71
2023-03-21T01:31:31.637Z,87.71
2023-03-21T01:31:42.542Z,87.60
2023-03-21T01:31:55.673Z,87.60
2023-03-21T01:32:07.974Z,87.60
2023-03-21T01:32:18.804Z,87.60
2023-03-21T01:32:29.704Z,87.51
2023-03-21T01:32:42.152Z,87.51
2023-03-21T01:32:54.605Z,87.51
2023-03-21T01:33:07.095Z,87.60
2023-03-21T01:33:19.534Z,87.60
2023-03-21T01:33:30.277Z,87.60
2023-03-21T01:33:42.742Z,87.60
2023-03-21T01:33:55.245Z,87.51
2023-03-21T01:34:06.063Z,87.51
2023-03-21T01:34:16.856Z,87.51
2023-03-21T01:34:27.749Z,87.51
2023-03-21T01:34:38.566Z,87.51
2023-03-21T01:34:50.337Z,87.51
2023-03-21T01:35:01.095Z,87.51
2023-03-21T01:35:13.345Z,87.51
2023-03-21T01:35:24.173Z,87.36
2023-03-21T01:35:47.964Z,87.30
2023-03-21T01:36:03.144Z,87.30
2023-03-21T01:36:13.482Z,87.19
2023-03-21T01:36:26.301Z,87.19
2023-03-21T01:36:38.795Z,87.19
2023-03-21T01:36:50.559Z,87.19
2023-03-21T01:37:02.833Z,87.15
2023-03-21T01:37:15.344Z,87.19
2023-03-21T01:37:27.140Z,87.19
2023-03-21T01:37:38.943Z,87.15
2023-03-21T01:37:50.734Z,87.05
2023-03-21T01:38:01.617Z,87.05
2023-03-21T01:38:12.410Z,87.05
2023-03-21T01:38:23.222Z,86.99
2023-03-21T01:38:34.974Z,86.99
2023-03-21T01:38:45.767Z,86.95
2023-03-21T01:38:56.604Z,86.99
2023-03-21T01:39:09.100Z,86.95
2023-03-21T01:39:22.331Z,87.05
2023-03-21T01:39:33.135Z,87.05
2023-03-21T01:39:43.969Z,87.05
2023-03-21T01:39:54.804Z,87.05
2023-03-21T01:40:07.278Z,87.05
2023-03-21T01:40:18.061Z,87.15
2023-03-21T01:40:30.535Z,87.15
2023-03-21T01:40:43.018Z,87.15
2023-03-21T01:40:54.796Z,87.15
2023-03-21T01:41:18.689Z,87.15
2023-03-21T01:41:26.333Z,87.15
2023-03-21T01:41:43.439Z,87.15
2023-03-21T01:41:55.685Z,87.15
2023-03-21T01:42:06.465Z,87.15
2023-03-21T01:42:19.469Z,87.05
2023-03-21T01:42:31.713Z,86.95
2023-03-21T01:42:44.236Z,86.95
2023-03-21T01:42:56.239Z,86.95
2023-03-21T01:43:08.122Z,86.95
2023-03-21T01:43:18.924Z,86.95
2023-03-21T01:43:30.720Z,86.95
2023-03-21T01:43:43.212Z,86.95
2023-03-21T01:43:53.960Z,86.85
2023-03-21T01:44:04.730Z,86.85
2023-03-21T01:44:17.000Z,86.85
2023-03-21T01:44:27.784Z,86.95
2023-03-21T01:44:38.557Z,86.95
2023-03-21T01:44:49.355Z,86.95
2023-03-21T01:45:00.168Z,86.95
2023-03-21T01:45:11.946Z,86.95
2023-03-21T01:45:22.725Z,86.85
2023-03-21T01:45:35.321Z,86.85
2023-03-21T01:45:47.987Z,86.85
2023-03-21T01:45:58.906Z,86.85
2023-03-21T01:46:10.053Z,86.74
2023-03-21T01:46:21.089Z,86.74
2023-03-21T01:46:46.194Z,86.74
2023-03-21T01:47:09.680Z,86.74
2023-03-21T01:47:12.514Z,86.64
2023-03-21T01:47:24.377Z,86.64
2023-03-21T01:47:36.906Z,86.64
2023-03-21T01:47:49.699Z,86.64
2023-03-21T01:48:04.138Z,86.64
2023-03-21T01:48:17.892Z,86.64
2023-03-21T01:48:30.526Z,86.74
2023-03-21T01:48:42.987Z,86.74
2023-03-21T01:48:54.717Z,86.74
2023-03-21T01:49:05.497Z,86.74
2023-03-21T01:49:16.310Z,86.74
2023-03-21T01:49:28.586Z,86.74
2023-03-21T01:49:40.977Z,86.74
2023-03-21T01:49:52.745Z,86.74
2023-03-21T01:50:05.257Z,86.74
2023-03-21T01:50:18.247Z,86.85
2023-03-21T01:50:29.038Z,86.85
2023-03-21T01:50:41.580Z,86.85
2023-03-21T01:50:52.388Z,86.85
2023-03-21T01:51:04.846Z,86.74
2023-03-21T01:51:15.655Z,86.74
2023-03-21T01:51:28.222Z,86.64
2023-03-21T01:51:40.678Z,86.64
2023-03-21T01:51:52.531Z,86.64
2023-03-21T01:52:11.522Z,86.64
2023-03-21T01:52:33.475Z,86.74
2023-03-21T01:52:38.541Z,86.74
2023-03-21T01:52:52.688Z,86.74
2023-03-21T01:53:05.406Z,86.85
2023-03-21T01:53:17.185Z,86.95
2023-03-21T01:53:29.639Z,87.05
2023-03-21T01:53:41.460Z,87.05
2023-03-21T01:53:53.215Z,87.05
2023-03-21T01:54:04.030Z,87.05
2023-03-21T01:54:14.817Z,86.95
2023-03-21T01:54:27.307Z,86.95
2023-03-21T01:54:39.818Z,86.95
2023-03-21T01:54:51.569Z,86.95
2023-03-21T01:55:02.418Z,87.05
2023-03-21T01:55:13.192Z,87.05
2023-03-21T01:55:23.990Z,86.95
2023-03-21T01:55:36.815Z,86.95
2023-03-21T01:55:48.672Z,86.95
2023-03-21T01:55:59.451Z,86.95
2023-03-21T01:56:11.947Z,86.95
2023-03-21T01:56:22.714Z,87.05
2023-03-21T01:56:33.511Z,87.05
2023-03-21T01:56:44.341Z,87.15
2023-03-21T01:56:56.897Z,87.15
2023-03-21T01:57:08.650Z,87.15
2023-03-21T01:57:21.159Z,87.15
2023-03-21T01:57:42.447Z,87.15
2023-03-21T01:58:03.912Z,87.15
2023-03-21T01:58:07.274Z,87.15
2023-03-21T01:58:20.280Z,87.15
2023-03-21T01:58:33.522Z,87.15
2023-03-21T01:58:44.300Z,87.15
2023-03-21T01:58:56.091Z,87.15
2023-03-21T01:59:06.970Z,87.05
2023-03-21T01:59:19.231Z,87.05
2023-03-21T01:59:31.044Z,87.05
2023-03-21T01:59:41.853Z,87.05
2023-03-21T01:59:54.327Z,87.05
2023-03-21T02:00:05.108Z,87.05
2023-03-21T02:00:16.120Z,87.05
2023-03-21T02:00:27.870Z,87.05
2023-03-21T02:00:38.795Z,87.05
2023-03-21T02:00:51.102Z,87.05
2023-03-21T02:01:01.892Z,86.95
2023-03-21T02:01:14.683Z,86.95
2023-03-21T02:01:25.519Z,86.95
2023-03-21T02:01:37.744Z,86.95
2023-03-21T02:01:50.220Z,86.95
2023-03-21T02:02:01.997Z,86.95
2023-03-21T02:02:14.980Z,86.95
2023-03-21T02:02:25.810Z,86.95
2023-03-21T02:02:38.530Z,86.95
2023-03-21T02:02:49.740Z,87.05
2023-03-21T02:03:11.634Z,87.05
2023-03-21T02:03:33.369Z,87.15
2023-03-21T02:03:36.535Z,87.15
2023-03-21T02:03:49.203Z,87.15
2023-03-21T02:04:00.027Z,87.15
2023-03-21T02:04:10.939Z,87.15
2023-03-21T02:04:21.839Z,87.15
2023-03-21T02:04:32.600Z,87.05
2023-03-21T02:04:44.912Z,87.05
2023-03-21T02:04:55.653Z,86.95
2023-03-21T02:05:06.452Z,86.95
2023-03-21T02:05:19.697Z,86.95
2023-03-21T02:05:30.470Z,87.05
2023-03-21T02:05:41.256Z,87.05
2023-03-21T02:05:52.290Z,87.05
2023-03-21T02:06:03.113Z,87.05
2023-03-21T02:06:13.907Z,87.05
2023-03-21T02:06:27.139Z,87.15
2023-03-21T02:06:37.933Z,87.15
2023-03-21T02:06:49.729Z,87.15
2023-03-21T02:07:00.481Z,87.15
2023-03-21T02:07:13.244Z,87.15
2023-03-21T02:07:26.515Z,87.15
2023-03-21T02:07:39.013Z,87.15
2023-03-21T02:07:51.512Z,87.15
2023-03-21T02:08:03.292Z,87.15
2023-03-21T02:08:16.471Z,87.15
2023-03-21T02:08:38.828Z,87.05
2023-03-21T02:08:46.821Z,86.95
2023-03-21T02:08:57.568Z,86.85
2023-03-21T02:09:10.036Z,86.85
2023-03-21T02:09:23.771Z,86.95
2023-03-21T02:09:36.712Z,86.95
2023-03-21T02:09:48.485Z,87.05
2023-03-21T02:09:59.281Z,87.05
2023-03-21T02:10:10.070Z,87.05
2023-03-21T02:10:22.311Z,87.15
2023-03-21T02:10:33.122Z,87.15
2023-03-21T02:10:43.932Z,87.26
2023-03-21T02:10:55.701Z,87.36
2023-03-21T02:11:08.161Z,87.36
2023-03-21T02:11:19.902Z,87.36
2023-03-21T02:11:31.695Z,87.36
2023-03-21T02:11:44.172Z,87.36
2023-03-21T02:11:56.652Z,87.36
2023-03-21T02:12:08.385Z,87.36
2023-03-21T02:12:22.102Z,87.36
2023-03-21T02:12:34.604Z,87.36
2023-03-21T02:12:45.372Z,87.46
2023-03-21T02:12:58.623Z,87.46
2023-03-21T02:13:10.351Z,87.57
2023-03-21T02:13:23.596Z,87.57
2023-03-21T02:13:36.108Z,87.57
2023-03-21T02:13:48.729Z,87.57
2023-03-21T02:14:06.641Z,87.67
2023-03-21T02:14:26.573Z,87.67
2023-03-21T02:14:33.687Z,87.67
2023-03-21T02:14:44.502Z,87.77
2023-03-21T02:14:57.046Z,87.77
2023-03-21T02:15:09.544Z,87.77
2023-03-21T02:15:22.313Z,87.77
2023-03-21T02:15:34.692Z,87.77
2023-03-21T02:15:45.523Z,87.77
2023-03-21T02:15:56.265Z,87.87
2023-03-21T02:16:09.496Z,87.77
2023-03-21T02:16:20.335Z,87.77
2023-03-21T02:16:32.431Z,87.77
2023-03-21T02:16:43.264Z,87.77
2023-03-21T02:16:55.805Z,87.77
2023-03-21T02:17:09.047Z,87.87
2023-03-21T02:17:20.791Z,87.87
2023-03-21T02:17:33.008Z,87.87
2023-03-21T02:17:45.482Z,87.87
2023-03-21T02:17:58.386Z,87.87
2023-03-21T02:18:10.174Z,87.87
2023-03-21T02:18:20.964Z,87.98
2023-03-21T02:18:33.457Z,87.98
2023-03-21T02:18:45.206Z,87.87
2023-03-21T02:18:59.995Z,87.98
2023-03-21T02:19:11.542Z,87.98
2023-03-21T02:19:31.941Z,87.87
2023-03-21T02:19:50.963Z,87.87
2023-03-21T02:19:58.290Z,87.87
2023-03-21T02:20:11.309Z,87.87
2023-03-21T02:20:22.148Z,87.98
2023-03-21T02:20:34.397Z,87.98
2023-03-21T02:20:46.930Z,88.08
2023-03-21T02:20:57.725Z,88.08
2023-03-21T02:21:10.185Z,88.08
2023-03-21T02:21:21.057Z,88.08
2023-03-21T02:21:32.805Z,88.08
2023-03-21T02:21:43.586Z,88.08
2023-03-21T02:21:55.349Z,88.08
2023-03-21T02:22:07.338Z,88.08
2023-03-21T02:22:19.320Z,88.08
2023-03-21T02:22:31.094Z,88.08
2023-03-21T02:22:43.562Z,88.08
2023-03-21T02:22:55.856Z,87.98
2023-03-21T02:23:07.626Z,87.98
2023-03-21T02:23:20.076Z,87.98
2023-03-21T02:23:30.871Z,87.87
2023-03-21T02:23:43.376Z,87.98
2023-03-21T02:23:56.253Z,87.98
2023-03-21T02:24:08.007Z,87.98
2023-03-21T02:24:19.755Z,87.98
2023-03-21T02:24:32.244Z,88.08
2023-03-21T02:24:48.742Z,88.18
2023-03-21T02:25:04.199Z,88.08
2023-03-21T02:25:21.753Z,88.23
2023-03-21T02:25:31.046Z,88.23
2023-03-21T02:25:42.828Z,88.23
2023-03-21T02:25:55.142Z,88.08
2023-03-21T02:26:05.963Z,88.12
2023-03-21T02:26:16.704Z,88.23
2023-03-21T02:26:36.170Z,88.23
2023-03-21T02:26:45.152Z,88.23
2023-03-21T02:27:04.683Z,88.23
2023-03-21T02:27:17.617Z,88.23
2023-03-21T02:27:29.409Z,88.23
2023-03-21T02:27:40.210Z,88.23
2023-03-21T02:27:52.447Z,88.23
2023-03-21T02:28:05.688Z,88.23
2023-03-21T02:28:17.946Z,88.23
2023-03-21T02:28:28.767Z,88.23
2023-03-21T02:28:39.650Z,88.23
2023-03-21T02:28:52.169Z,88.23
2023-03-21T02:29:04.648Z,88.33
2023-03-21T02:29:15.486Z,88.23
2023-03-21T02:29:27.247Z,88.23
2023-03-21T02:29:40.469Z,88.23
2023-03-21T02:29:51.280Z,88.23
2023-03-21T02:30:03.796Z,88.23
2023-03-21T02:30:26.556Z,88.33
2023-03-21T02:30:39.888Z,88.43
2023-03-21T02:30:52.223Z,88.53
2023-03-21T02:31:03.265Z,88.53
2023-03-21T02:31:14.055Z,88.53
2023-03-21T02:31:24.866Z,88.53
2023-03-21T02:31:36.692Z,88.64
2023-03-21T02:31:49.241Z,88.64
2023-03-21T02:32:15.175Z,88.74
2023-03-21T02:32:28.362Z,88.74
2023-03-21T02:32:37.835Z,88.74
2023-03-21T02:32:49.972Z,88.74
2023-03-21T02:33:01.720Z,88.74
2023-03-21T02:33:12.511Z,88.74
2023-03-21T02:33:23.272Z,88.84
2023-03-21T02:33:35.029Z,88.84
2023-03-21T02:33:45.880Z,88.84
2023-03-21T02:33:56.669Z,88.84
2023-03-21T02:34:09.201Z,88.84
2023-03-21T02:34:21.672Z,88.84
2023-03-21T02:34:33.426Z,88.84
2023-03-21T02:34:44.230Z,88.84
2023-03-21T02:34:55.090Z,88.84
2023-03-21T02:35:05.860Z,88.95
2023-03-21T02:35:18.083Z,88.95
2023-03-21T02:35:28.876Z,88.95
2023-03-21T02:35:47.189Z,88.95
2023-03-21T02:36:02.972Z,89.05
2023-03-21T02:36:14.886Z,89.15
2023-03-21T02:36:28.297Z,89.25
2023-03-21T02:36:41.294Z,89.25
2023-03-21T02:36:53.042Z,89.25
2023-03-21T02:37:05.514Z,89.25
2023-03-21T02:37:18.673Z,89.25
2023-03-21T02:37:37.704Z,89.15
2023-03-21T02:37:52.038Z,89.25
2023-03-21T02:38:03.222Z,89.46
2023-03-21T02:38:15.021Z,89.67
2023-03-21T02:38:26.762Z,89.77
2023-03-21T02:38:39.084Z,89.87
2023-03-21T02:38:50.845Z,89.87
2023-03-21T02:39:05.613Z,89.87
2023-03-21T02:39:17.383Z,89.97
2023-03-21T02:39:28.151Z,89.97
2023-03-21T02:39:39.005Z,89.97
2023-03-21T02:39:51.323Z,89.97
2023-03-21T02:40:02.152Z,89.97
2023-03-21T02:40:14.368Z,89.97
2023-03-21T02:40:25.172Z,89.97
2023-03-21T02:40:37.897Z,89.97
2023-03-21T02:40:48.785Z,89.97